createdAt,value
2022-09-12T00:00:31.753Z,17.03
2022-09-12T00:03:55.847Z,16.95
2022-09-12T00:07:20.437Z,16.70
2022-09-12T00:10:44.228Z,16.84
2022-09-12T00:14:07.981Z,16.77
2022-09-12T00:17:29.640Z,16.39
2022-09-12T00:20:53.555Z,16.43
2022-09-12T00:24:17.343Z,16.39
2022-09-12T00:27:45.506Z,16.46
2022-09-12T00:31:20.376Z,16.57
2022-09-12T00:34:41.995Z,16.71
2022-09-12T00:38:06.279Z,16.88
2022-09-12T00:41:35.171Z,16.88
2022-09-12T00:45:01.940Z,16.91
2022-09-12T00:48:33.868Z,16.67
2022-09-12T00:52:09.894Z,16.81
2022-09-12T00:55:49.061Z,16.85
2022-09-12T00:59:27.617Z,16.87
2022-09-12T01:02:53.070Z,16.88
2022-09-12T01:06:21.165Z,16.88
2022-09-12T01:09:47.067Z,16.80
2022-09-12T01:13:10.374Z,16.84
2022-09-12T01:16:34.428Z,16.83
2022-09-12T01:20:22.079Z,16.88
2022-09-12T01:23:49.286Z,16.85
2022-09-12T01:27:42.076Z,16.81
2022-09-12T01:31:26.922Z,16.79
2022-09-12T01:34:56.416Z,16.77
2022-09-12T01:38:36.955Z,16.73
2022-09-12T01:42:28.289Z,16.28
2022-09-12T01:46:17.675Z,16.13
2022-09-12T01:50:03.087Z,16.19
2022-09-12T01:53:31.383Z,16.40
2022-09-12T01:56:55.328Z,16.38
2022-09-12T02:00:20.639Z,16.28
2022-09-12T02:03:51.886Z,15.94
2022-09-12T02:07:22.742Z,16.00
2022-09-12T02:10:51.649Z,16.15
2022-09-12T02:14:24.205Z,16.28
2022-09-12T02:17:49.852Z,16.32
2022-09-12T02:21:11.863Z,16.45
2022-09-12T02:24:39.629Z,16.45
2022-09-12T02:28:08.947Z,16.15
2022-09-12T02:31:47.403Z,16.30
2022-09-12T02:35:13.798Z,16.33
2022-09-12T02:38:45.426Z,16.43
2022-09-12T02:42:07.723Z,16.32
2022-09-12T02:45:29.855Z,16.15
2022-09-12T02:48:51.587Z,16.13
2022-09-12T02:52:15.189Z,16.23
2022-09-12T02:55:39.167Z,16.25
2022-09-12T02:59:09.514Z,15.98
2022-09-12T03:02:49.846Z,15.73
2022-09-12T03:06:31.123Z,15.74
2022-09-12T03:09:58.979Z,15.95
2022-09-12T03:13:39.303Z,15.95
2022-09-12T03:17:17.357Z,16.05
2022-09-12T03:21:02.161Z,16.19
2022-09-12T03:24:35.365Z,16.02
2022-09-12T03:28:15.690Z,15.93
2022-09-12T03:31:39.359Z,16.00
2022-09-12T03:35:00.903Z,16.11
2022-09-12T03:38:22.436Z,16.04
2022-09-12T03:41:45.184Z,16.13
2022-09-12T03:45:07.810Z,16.13
2022-09-12T03:48:31.909Z,16.08
2022-09-12T03:51:53.586Z,16.05
2022-09-12T03:55:15.317Z,16.09
2022-09-12T03:58:39.914Z,16.15
2022-09-12T04:02:01.838Z,16.23
2022-09-12T04:05:26.812Z,16.16
2022-09-12T04:08:50.699Z,16.12
2022-09-12T04:12:13.884Z,16.11
2022-09-12T04:15:40.610Z,16.05
2022-09-12T04:19:04.678Z,16.06
2022-09-12T04:22:26.487Z,15.88
2022-09-12T04:25:58.182Z,15.98
2022-09-12T04:29:22.430Z,16.00
2022-09-12T04:32:46.268Z,16.06
2022-09-12T04:36:16.847Z,15.71
2022-09-12T04:39:38.413Z,15.85
2022-09-12T04:43:02.657Z,15.94
2022-09-12T04:46:26.979Z,15.98
2022-09-12T04:49:51.159Z,16.02
2022-09-12T04:53:12.660Z,16.04
2022-09-12T04:56:38.504Z,16.11
2022-09-12T05:00:06.531Z,16.25
2022-09-12T05:03:28.685Z,16.33
2022-09-12T05:06:50.270Z,16.19
2022-09-12T05:10:25.218Z,16.02
2022-09-12T05:13:47.540Z,15.77
2022-09-12T05:17:09.147Z,16.02
2022-09-12T05:20:33.609Z,15.97
2022-09-12T05:24:01.920Z,16.04
2022-09-12T05:27:23.459Z,16.30
2022-09-12T05:30:48.763Z,16.11
2022-09-12T05:34:11.204Z,16.21
2022-09-12T05:37:32.748Z,16.34
2022-09-12T05:41:03.507Z,16.46
2022-09-12T05:44:28.262Z,16.22
2022-09-12T05:47:50.029Z,16.28
2022-09-12T05:51:20.291Z,16.02
2022-09-12T05:54:41.872Z,16.25
2022-09-12T05:58:03.617Z,16.09
2022-09-12T06:01:27.116Z,16.30
2022-09-12T06:04:48.870Z,16.57
2022-09-12T06:08:11.242Z,16.91
2022-09-12T06:11:35.302Z,16.84
2022-09-12T06:14:56.977Z,17.00
2022-09-12T06:18:18.675Z,16.97
2022-09-12T06:21:42.597Z,17.14
2022-09-12T06:25:06.864Z,17.15
2022-09-12T06:28:35.590Z,17.04
2022-09-12T06:31:59.595Z,17.14
2022-09-12T06:35:21.296Z,17.29
2022-09-12T06:38:43.250Z,17.28
2022-09-12T06:42:05.115Z,17.27
2022-09-12T06:45:26.761Z,17.39
2022-09-12T06:48:48.485Z,18.00
2022-09-12T06:52:12.368Z,18.07
2022-09-12T06:55:34.829Z,18.08
2022-09-12T06:59:00.425Z,18.32
2022-09-12T07:02:25.723Z,18.72
2022-09-12T07:05:52.466Z,18.80
2022-09-12T07:09:20.449Z,18.70
2022-09-12T07:12:44.249Z,19.23
2022-09-12T07:16:10.085Z,19.16
2022-09-12T07:19:31.612Z,19.37
2022-09-12T07:22:55.460Z,19.59
2022-09-12T07:26:17.103Z,19.79
2022-09-12T07:29:38.795Z,20.17
2022-09-12T07:33:00.499Z,20.30
2022-09-12T07:36:25.306Z,20.02
2022-09-12T07:39:47.013Z,19.83
2022-09-12T07:43:09.226Z,19.61
2022-09-12T07:46:31.743Z,19.96
2022-09-12T07:49:55.687Z,19.93
2022-09-12T07:53:17.230Z,19.85
2022-09-12T07:56:39.571Z,20.19
2022-09-12T08:00:06.701Z,20.05
2022-09-12T08:03:28.234Z,20.10
2022-09-12T08:06:52.019Z,20.60
2022-09-12T08:10:13.818Z,21.30
2022-09-12T08:13:37.396Z,21.35
2022-09-12T08:16:58.910Z,21.77
2022-09-12T08:20:21.923Z,21.95
2022-09-12T08:23:46.431Z,21.74
2022-09-12T08:27:10.745Z,21.22
2022-09-12T08:30:32.420Z,21.25
2022-09-12T08:34:01.082Z,21.10
2022-09-12T08:37:25.114Z,21.22
2022-09-12T08:41:20.715Z,21.33
2022-09-12T08:44:51.343Z,21.92
2022-09-12T08:48:18.950Z,22.13
2022-09-12T08:51:43.693Z,22.00
2022-09-12T08:55:06.917Z,22.61
2022-09-12T08:58:40.743Z,22.81
2022-09-12T09:02:13.814Z,22.43
2022-09-12T09:06:02.626Z,22.77
2022-09-12T09:09:43.009Z,22.19
2022-09-12T09:13:42.995Z,22.48
2022-09-12T09:17:11.448Z,22.57
2022-09-12T09:20:44.010Z,22.90
2022-09-12T09:24:10.311Z,23.19
2022-09-12T09:27:41.897Z,22.56
2022-09-12T09:31:04.848Z,21.92
2022-09-12T09:34:33.159Z,21.71
2022-09-12T09:38:05.263Z,22.02
2022-09-12T09:41:52.388Z,22.42
2022-09-12T09:45:21.614Z,21.73
2022-09-12T09:48:48.645Z,21.50
2022-09-12T09:52:16.232Z,21.63
2022-09-12T09:55:43.885Z,21.78
2022-09-12T09:59:34.583Z,22.96
2022-09-12T10:03:04.759Z,23.62
2022-09-12T10:06:32.301Z,23.70
2022-09-12T10:10:22.822Z,24.16
2022-09-12T10:13:51.191Z,24.38
2022-09-12T10:17:49.461Z,24.35
2022-09-12T10:21:17.283Z,23.52
2022-09-12T10:24:49.046Z,22.77
2022-09-12T10:28:35.272Z,22.60
2022-09-12T10:32:05.716Z,22.22
2022-09-12T10:35:42.496Z,21.70
2022-09-12T10:39:05.171Z,21.26
2022-09-12T10:42:47.363Z,21.50
2022-09-12T10:46:14.837Z,21.67
2022-09-12T10:49:40.091Z,21.42
2022-09-12T10:53:20.799Z,21.36
2022-09-12T10:57:11.958Z,21.18
2022-09-12T11:00:40.053Z,21.13
2022-09-12T11:04:39.584Z,21.42
2022-09-12T11:08:39.973Z,21.80
2022-09-12T11:12:10.658Z,21.70
2022-09-12T11:16:05.173Z,21.65
2022-09-12T11:19:52.623Z,21.87
2022-09-12T11:23:19.709Z,22.02
2022-09-12T11:27:01.444Z,21.83
2022-09-12T11:30:24.200Z,22.19
2022-09-12T11:33:53.940Z,23.15
2022-09-12T11:37:43.945Z,23.73
2022-09-12T11:41:31.525Z,23.80
2022-09-12T11:45:10.147Z,23.27
2022-09-12T11:48:48.973Z,22.56
2022-09-12T11:52:23.970Z,21.97
2022-09-12T11:56:15.651Z,21.75
2022-09-12T12:00:15.043Z,21.56
2022-09-12T12:03:39.534Z,21.27
2022-09-12T12:07:07.861Z,20.98
2022-09-12T12:10:37.291Z,20.96
2022-09-12T12:14:17.729Z,21.05
2022-09-12T12:17:41.771Z,21.15
2022-09-12T12:21:40.953Z,21.16
2022-09-12T12:25:28.998Z,21.50
2022-09-12T12:28:52.189Z,22.05
2022-09-12T12:32:17.571Z,22.86
2022-09-12T12:36:02.420Z,23.39
2022-09-12T12:39:54.040Z,23.67
2022-09-12T12:43:32.058Z,23.21
2022-09-12T12:47:17.676Z,23.12
2022-09-12T12:50:39.376Z,23.15
2022-09-12T12:54:11.002Z,22.81
2022-09-12T12:57:49.569Z,22.48
2022-09-12T13:01:22.991Z,22.61
2022-09-12T13:04:49.079Z,22.57
2022-09-12T13:08:31.747Z,22.57
2022-09-12T13:12:09.771Z,22.04
2022-09-12T13:15:39.754Z,22.26
2022-09-12T13:19:18.010Z,22.49
2022-09-12T13:22:44.685Z,22.77
2022-09-12T13:26:24.154Z,22.84
2022-09-12T13:29:48.821Z,22.90
2022-09-12T13:33:17.971Z,22.87
2022-09-12T13:37:05.810Z,22.87
2022-09-12T13:40:49.684Z,23.11
2022-09-12T13:44:17.641Z,23.12
2022-09-12T13:47:46.708Z,23.28
2022-09-12T13:51:33.576Z,23.35
2022-09-12T13:54:58.457Z,23.27
2022-09-12T13:58:28.668Z,23.39
2022-09-12T14:01:50.658Z,23.17
2022-09-12T14:05:24.406Z,23.35
2022-09-12T14:08:48.167Z,23.41
2022-09-12T14:12:22.278Z,23.41
2022-09-12T14:15:55.243Z,23.42
2022-09-12T14:19:19.344Z,23.19
2022-09-12T14:22:43.378Z,23.32
2022-09-12T14:26:06.703Z,23.56
2022-09-12T14:29:31.532Z,23.86
2022-09-12T14:33:13.814Z,24.00
2022-09-12T14:36:47.408Z,23.58
2022-09-12T14:40:41.095Z,23.65
2022-09-12T14:44:07.780Z,23.76
2022-09-12T14:47:41.857Z,23.49
2022-09-12T14:51:08.733Z,23.69
2022-09-12T14:54:30.398Z,23.94
2022-09-12T14:58:15.728Z,23.83
2022-09-12T15:01:39.854Z,23.97
2022-09-12T15:05:06.431Z,23.90
2022-09-12T15:08:28.100Z,23.63
2022-09-12T15:11:53.748Z,23.58
2022-09-12T15:15:20.856Z,23.49
2022-09-12T15:18:47.354Z,23.38
2022-09-12T15:22:15.477Z,23.27
2022-09-12T15:25:37.173Z,23.22
2022-09-12T15:28:58.721Z,23.11
2022-09-12T15:32:26.923Z,23.00
2022-09-12T15:35:48.926Z,22.90
2022-09-12T15:39:10.638Z,22.69
2022-09-12T15:42:33.244Z,22.67
2022-09-12T15:45:54.966Z,22.61
2022-09-12T15:49:19.511Z,22.43
2022-09-12T15:52:41.429Z,22.26
2022-09-12T15:56:06.465Z,22.18
2022-09-12T15:59:28.372Z,22.31
2022-09-12T16:02:54.103Z,22.18
2022-09-12T16:06:15.647Z,22.11
2022-09-12T16:09:37.551Z,22.11
2022-09-12T16:13:01.754Z,21.98
2022-09-12T16:16:23.485Z,22.01
2022-09-12T16:19:47.272Z,21.94
2022-09-12T16:23:12.700Z,21.91
2022-09-12T16:26:34.381Z,21.83
2022-09-12T16:29:56.039Z,21.65
2022-09-12T16:33:19.793Z,21.60
2022-09-12T16:36:45.245Z,21.45
2022-09-12T16:40:15.842Z,21.47
2022-09-12T16:43:45.544Z,21.37
2022-09-12T16:47:07.274Z,21.19
2022-09-12T16:50:29.306Z,21.12
2022-09-12T16:53:56.801Z,21.02
2022-09-12T16:57:18.362Z,21.06
2022-09-12T17:00:40.030Z,20.87
2022-09-12T17:04:02.001Z,20.95
2022-09-12T17:07:23.867Z,20.91
2022-09-12T17:10:45.363Z,20.89
2022-09-12T17:14:09.006Z,20.84
2022-09-12T17:17:30.709Z,20.79
2022-09-12T17:20:52.375Z,20.78
2022-09-12T17:24:17.175Z,20.74
2022-09-12T17:27:38.917Z,20.74
2022-09-12T17:31:05.787Z,20.67
2022-09-12T17:34:27.342Z,20.57
2022-09-12T17:37:49.931Z,20.55
2022-09-12T17:41:21.598Z,20.54
2022-09-12T17:44:43.515Z,20.52
2022-09-12T17:48:06.770Z,20.45
2022-09-12T17:51:31.217Z,20.40
2022-09-12T17:54:52.758Z,20.39
2022-09-12T17:58:14.508Z,20.33
2022-09-12T18:01:57.170Z,20.29
2022-09-12T18:05:23.898Z,20.26
2022-09-12T18:08:45.392Z,20.17
2022-09-12T18:12:10.807Z,20.17
2022-09-12T18:15:38.460Z,20.06
2022-09-12T18:19:03.614Z,19.93
2022-09-12T18:22:25.128Z,19.83
2022-09-12T18:25:46.768Z,19.81
2022-09-12T18:29:10.750Z,19.74
2022-09-12T18:32:32.283Z,19.65
2022-09-12T18:35:53.945Z,19.61
2022-09-12T18:39:16.585Z,19.48
2022-09-12T18:42:38.329Z,19.39
2022-09-12T18:46:08.222Z,19.27
2022-09-12T18:49:32.822Z,19.11
2022-09-12T18:52:59.766Z,18.95
2022-09-12T18:56:32.826Z,18.62
2022-09-12T18:59:54.916Z,18.61
2022-09-12T19:03:18.895Z,18.56
2022-09-12T19:06:42.866Z,17.86
2022-09-12T19:10:05.043Z,17.91
2022-09-12T19:13:26.610Z,17.97
2022-09-12T19:16:48.753Z,18.00
2022-09-12T19:20:12.363Z,18.03
2022-09-12T19:23:35.330Z,18.18
2022-09-12T19:26:56.991Z,18.14
2022-09-12T19:30:23.349Z,18.07
2022-09-12T19:33:47.328Z,18.00
2022-09-12T19:37:11.577Z,17.93
2022-09-12T19:40:33.548Z,17.93
2022-09-12T19:43:59.583Z,17.94
2022-09-12T19:47:21.424Z,17.84
2022-09-12T19:50:42.942Z,17.75
2022-09-12T19:54:07.842Z,17.72
2022-09-12T19:57:31.943Z,17.49
2022-09-12T20:00:54.287Z,17.50
2022-09-12T20:04:18.256Z,17.46
2022-09-12T20:07:48.352Z,17.43
2022-09-12T20:11:15.181Z,17.29
2022-09-12T20:14:36.905Z,17.29
2022-09-12T20:17:58.459Z,17.34
2022-09-12T20:21:25.251Z,17.34
2022-09-12T20:24:49.437Z,17.39
2022-09-12T20:28:11.014Z,17.36
2022-09-12T20:31:33.715Z,17.38
2022-09-12T20:34:57.548Z,17.35
2022-09-12T20:38:21.706Z,17.22
2022-09-12T20:41:48.131Z,17.19
2022-09-12T20:45:12.426Z,17.18
2022-09-12T20:48:36.815Z,17.22
2022-09-12T20:51:58.418Z,17.07
2022-09-12T20:55:24.814Z,16.90
2022-09-12T20:58:48.998Z,16.84
2022-09-12T21:02:14.169Z,16.80
2022-09-12T21:05:35.885Z,16.77
2022-09-12T21:09:01.114Z,16.81
2022-09-12T21:12:24.840Z,16.61
2022-09-12T21:15:49.811Z,16.52
2022-09-12T21:19:11.368Z,15.74
2022-09-12T21:22:35.938Z,15.95
2022-09-12T21:26:01.488Z,16.05
2022-09-12T21:29:23.136Z,16.11
2022-09-12T21:32:51.808Z,16.05
2022-09-12T21:36:13.330Z,15.98
2022-09-12T21:39:37.571Z,15.94
2022-09-12T21:42:59.382Z,15.94
2022-09-12T21:46:21.006Z,15.81
2022-09-12T21:49:45.534Z,15.80
2022-09-12T21:53:11.826Z,15.70
2022-09-12T21:56:33.540Z,15.51
2022-09-12T21:59:57.826Z,15.58
2022-09-12T22:03:19.356Z,15.60
2022-09-12T22:06:40.893Z,15.53
2022-09-12T22:10:03.448Z,15.49
2022-09-12T22:13:25.950Z,15.44
2022-09-12T22:16:49.738Z,15.30
2022-09-12T22:20:14.702Z,15.16
2022-09-12T22:23:54.585Z,15.18
2022-09-12T22:27:16.235Z,15.22
2022-09-12T22:30:42.987Z,15.16
2022-09-12T22:34:07.343Z,15.10
2022-09-12T22:37:28.908Z,14.79
2022-09-12T22:40:50.713Z,14.75
2022-09-12T22:44:16.484Z,14.87
2022-09-12T22:47:42.972Z,14.74
2022-09-12T22:51:05.317Z,14.63
2022-09-12T22:54:28.036Z,14.51
2022-09-12T22:57:49.794Z,14.52
2022-09-12T23:01:11.675Z,14.51
2022-09-12T23:04:33.327Z,14.63
2022-09-12T23:07:55.629Z,14.54
2022-09-12T23:11:19.583Z,14.41
2022-09-12T23:14:41.355Z,14.36
2022-09-12T23:18:05.451Z,14.23
2022-09-12T23:21:26.976Z,14.17
2022-09-12T23:24:48.618Z,14.33
2022-09-12T23:28:10.332Z,14.30
2022-09-12T23:31:34.282Z,14.24
2022-09-12T23:34:55.814Z,14.17
2022-09-12T23:38:22.178Z,14.19
2022-09-12T23:41:46.160Z,14.16
2022-09-12T23:45:08.315Z,14.08
2022-09-12T23:48:29.986Z,13.99
2022-09-12T23:51:51.510Z,14.05
2022-09-12T23:55:15.515Z,13.99
2022-09-12T23:58:40.002Z,13.92
